Time;durP1;ratioP1;P1;durP2;ratioP2;P2;SDS_P1;SDS_P2;PMS_P1;PMS_P2;Temp;Humidity;BMP_temperature;BMP_pressure;BME280_temperature;BME280_humidity;BME280_pressure;Samples;Min_cycle;Max_cycle;Signal;HPM_P1;HPM_P2
2023/12/19 00:00:05;;;;;;;;;;;5.70;99.90;;;;;;4981887;28;19972;-67
2023/12/19 00:02:34;;;;;;;;;;;5.70;99.90;;;;;;4972665;28;19960;-67
2023/12/19 00:05:00;;;;;;;;;;;5.70;99.90;;;;;;4972540;28;19926;-68
2023/12/19 00:07:28;;;;;;;;;;;5.70;99.90;;;;;;4973481;28;19930;-67
2023/12/19 00:09:55;;;;;;;;;;;5.70;99.90;;;;;;4967692;28;20070;-67
2023/12/19 00:12:22;;;;;;;;;;;5.70;99.90;;;;;;4972696;28;20343;-67
2023/12/19 00:14:49;;;;;;;;;;;5.60;99.90;;;;;;4972713;28;19933;-67
2023/12/19 00:17:15;;;;;;;;;;;5.60;99.90;;;;;;4972143;28;20415;-68
2023/12/19 00:19:44;;;;;;;;;;;5.60;99.90;;;;;;4972469;28;20397;-68
2023/12/19 00:22:10;;;;;;;;;;;5.60;99.90;;;;;;4971695;28;20026;-68
2023/12/19 00:24:39;;;;;;;;;;;5.60;99.90;;;;;;4978446;28;19926;-68
2023/12/19 00:27:05;;;;;;;;;;;5.60;99.90;;;;;;4986459;28;19978;-68
2023/12/19 00:29:32;;;;;;;;;;;5.70;99.90;;;;;;4971558;28;19930;-67
2023/12/19 00:31:59;;;;;;;;;;;5.70;99.90;;;;;;4986131;28;19926;-68
2023/12/19 00:34:26;;;;;;;;;;;5.70;99.90;;;;;;5002955;28;19930;-67
2023/12/19 00:37:00;;;;;;;;;;;5.70;99.90;;;;;;4977484;28;20302;-67
2023/12/19 00:39:27;;;;;;;;;;;5.70;99.90;;;;;;4972591;28;19972;-67
2023/12/19 00:41:54;;;;;;;;;;;5.60;99.90;;;;;;4971404;28;19966;-67
2023/12/19 00:44:21;;;;;;;;;;;5.60;99.90;;;;;;4976646;28;19926;-67
2023/12/19 00:46:48;;;;;;;;;;;5.60;99.90;;;;;;4992399;28;20240;-67
2023/12/19 00:49:14;;;;;;;;;;;5.60;99.90;;;;;;5002247;28;19948;-67
2023/12/19 00:51:41;;;;;;;;;;;5.60;99.90;;;;;;4970846;28;19927;-68
2023/12/19 00:54:09;;;;;;;;;;;5.60;99.90;;;;;;4971869;28;19933;-67
2023/12/19 00:56:37;;;;;;;;;;;5.60;99.90;;;;;;4979278;28;19926;-67
2023/12/19 00:59:03;;;;;;;;;;;5.60;99.90;;;;;;4981172;28;19925;-68
2023/12/19 01:01:30;;;;;;;;;;;5.60;99.90;;;;;;4986596;28;20004;-68
2023/12/19 01:03:57;;;;;;;;;;;5.60;99.90;;;;;;4971045;28;19926;-67
2023/12/19 01:06:24;;;;;;;;;;;5.60;99.90;;;;;;4971643;28;19934;-67
2023/12/19 01:08:50;;;;;;;;;;;5.60;99.90;;;;;;4971369;28;19926;-67
2023/12/19 01:11:18;;;;;;;;;;;5.60;99.90;;;;;;4971258;28;19969;-67
2023/12/19 01:13:45;;;;;;;;;;;5.60;99.90;;;;;;4970023;28;19965;-67
2023/12/19 01:16:13;;;;;;;;;;;5.60;99.90;;;;;;4960645;28;19926;-67
2023/12/19 01:18:40;;;;;;;;;;;5.60;99.90;;;;;;4975604;28;19961;-67
2023/12/19 01:21:07;;;;;;;;;;;5.70;99.90;;;;;;4971867;28;19930;-67
2023/12/19 01:23:34;;;;;;;;;;;5.70;99.90;;;;;;4975331;28;20436;-67
2023/12/19 01:26:01;;;;;;;;;;;5.70;99.90;;;;;;4970097;28;19927;-66
2023/12/19 01:28:29;;;;;;;;;;;5.70;99.90;;;;;;4981459;28;19926;-66
2023/12/19 01:30:56;;;;;;;;;;;5.70;99.90;;;;;;4960995;28;19953;-66
2023/12/19 01:33:22;;;;;;;;;;;5.70;99.90;;;;;;4976560;28;19977;-66
2023/12/19 01:35:49;;;;;;;;;;;5.80;99.90;;;;;;4983662;28;19926;-66
2023/12/19 01:38:17;;;;;;;;;;;5.80;99.90;;;;;;4981486;28;19926;-67
2023/12/19 01:40:43;;;;;;;;;;;5.80;99.90;;;;;;4970737;28;20405;-67
2023/12/19 01:43:17;;;;;;;;;;;5.80;99.90;;;;;;4970899;28;20355;-67
2023/12/19 01:45:46;;;;;;;;;;;5.80;99.90;;;;;;4984475;28;20003;-66
2023/12/19 01:48:13;;;;;;;;;;;5.80;99.90;;;;;;4977657;28;19939;-67
2023/12/19 01:50:40;;;;;;;;;;;5.80;99.90;;;;;;4975354;28;19934;-67
2023/12/19 01:53:06;;;;;;;;;;;5.90;99.90;;;;;;4978603;28;19995;-66
2023/12/19 01:55:33;;;;;;;;;;;5.90;99.90;;;;;;4985472;28;19929;-66
2023/12/19 01:58:01;;;;;;;;;;;5.90;99.90;;;;;;4981048;28;19926;-67
2023/12/19 02:00:28;;;;;;;;;;;5.90;99.90;;;;;;4970114;28;19972;-67
2023/12/19 02:02:56;;;;;;;;;;;5.90;99.90;;;;;;4969630;28;19979;-67
2023/12/19 02:05:22;;;;;;;;;;;5.90;99.90;;;;;;4968943;28;19975;-67
2023/12/19 02:07:49;;;;;;;;;;;5.90;99.90;;;;;;4969924;28;19926;-67
2023/12/19 02:10:16;;;;;;;;;;;5.90;99.90;;;;;;4970719;28;19934;-67
2023/12/19 02:12:44;;;;;;;;;;;5.90;99.90;;;;;;4971011;28;20339;-67
2023/12/19 02:15:11;;;;;;;;;;;6.00;99.90;;;;;;4969707;28;19984;-67
2023/12/19 02:17:40;;;;;;;;;;;5.90;99.90;;;;;;4973480;28;19925;-67
2023/12/19 02:20:08;;;;;;;;;;;6.00;99.90;;;;;;4968366;28;19930;-67
2023/12/19 02:22:35;;;;;;;;;;;6.00;99.90;;;;;;4970879;28;19959;-67
2023/12/19 02:25:03;;;;;;;;;;;6.00;99.90;;;;;;4970145;28;19979;-67
2023/12/19 02:27:30;;;;;;;;;;;6.00;99.90;;;;;;4981506;28;19930;-67
2023/12/19 02:29:57;;;;;;;;;;;6.00;99.90;;;;;;4969731;28;20000;-67
2023/12/19 02:32:24;;;;;;;;;;;6.10;99.90;;;;;;4971518;28;19933;-67
2023/12/19 02:34:51;;;;;;;;;;;6.00;99.90;;;;;;4971513;28;19926;-67
2023/12/19 02:37:17;;;;;;;;;;;6.00;99.90;;;;;;4970927;28;19970;-67
2023/12/19 02:39:44;;;;;;;;;;;6.00;99.90;;;;;;4970017;28;20293;-67
2023/12/19 02:42:12;;;;;;;;;;;6.00;99.90;;;;;;4970909;28;19972;-66
2023/12/19 02:44:39;;;;;;;;;;;6.10;99.90;;;;;;4970249;28;19933;-67
2023/12/19 02:47:06;;;;;;;;;;;6.10;99.90;;;;;;4971209;28;20380;-67
2023/12/19 02:49:32;;;;;;;;;;;6.10;99.90;;;;;;4969436;28;20377;-67
2023/12/19 02:51:59;;;;;;;;;;;6.10;99.90;;;;;;4970320;28;19926;-67
2023/12/19 02:54:26;;;;;;;;;;;6.10;99.90;;;;;;4974293;28;19933;-67
2023/12/19 02:56:53;;;;;;;;;;;6.10;99.90;;;;;;4983131;28;20397;-67
2023/12/19 02:59:21;;;;;;;;;;;6.10;99.90;;;;;;4969782;28;19980;-67
2023/12/19 03:01:48;;;;;;;;;;;6.10;99.90;;;;;;4969153;28;19938;-67
2023/12/19 03:04:15;;;;;;;;;;;6.10;99.90;;;;;;4968959;28;19926;-67
2023/12/19 03:06:42;;;;;;;;;;;6.10;99.90;;;;;;4969257;28;19991;-67
2023/12/19 03:09:09;;;;;;;;;;;6.10;99.90;;;;;;4969240;28;19987;-67
2023/12/19 03:11:37;;;;;;;;;;;6.10;99.90;;;;;;4968655;28;19926;-66
2023/12/19 03:14:03;;;;;;;;;;;6.20;99.90;;;;;;4969469;28;20009;-67
2023/12/19 03:16:32;;;;;;;;;;;6.20;99.90;;;;;;4969591;28;19940;-67
2023/12/19 03:18:57;;;;;;;;;;;6.20;99.90;;;;;;5016976;28;19972;-67
2023/12/19 03:21:24;;;;;;;;;;;6.20;99.90;;;;;;4968679;28;19926;-67
2023/12/19 03:23:51;;;;;;;;;;;6.20;99.90;;;;;;4969981;28;19991;-67
2023/12/19 03:26:17;;;;;;;;;;;6.20;99.90;;;;;;4975107;28;19927;-67
2023/12/19 03:28:44;;;;;;;;;;;6.20;99.90;;;;;;4972779;28;19926;-67
2023/12/19 03:31:12;;;;;;;;;;;6.30;99.90;;;;;;4971031;28;19987;-67
2023/12/19 03:33:40;;;;;;;;;;;6.30;99.90;;;;;;4968270;28;19956;-67
2023/12/19 03:36:07;;;;;;;;;;;6.30;99.90;;;;;;4970885;28;19930;-67
2023/12/19 03:38:35;;;;;;;;;;;6.30;99.90;;;;;;4970182;28;19957;-66
2023/12/19 03:41:02;;;;;;;;;;;6.30;99.90;;;;;;4971231;28;20077;-67
2023/12/19 03:43:28;;;;;;;;;;;6.30;99.90;;;;;;4952943;28;19956;-67
2023/12/19 03:46:00;;;;;;;;;;;6.30;99.90;;;;;;4973586;28;19926;-67
2023/12/19 03:48:27;;;;;;;;;;;6.30;99.90;;;;;;4975084;28;19934;-67
2023/12/19 03:50:55;;;;;;;;;;;6.30;99.90;;;;;;4996795;28;19926;-67
2023/12/19 03:53:22;;;;;;;;;;;6.40;99.90;;;;;;4979726;28;20009;-67
2023/12/19 03:55:49;;;;;;;;;;;6.40;99.90;;;;;;4973927;28;19930;-67
2023/12/19 03:58:16;;;;;;;;;;;6.40;99.90;;;;;;4979074;28;19926;-67
2023/12/19 04:00:42;;;;;;;;;;;6.40;99.90;;;;;;4983535;28;19979;-67
2023/12/19 04:03:09;;;;;;;;;;;6.40;99.90;;;;;;4998043;28;20296;-67
2023/12/19 04:05:36;;;;;;;;;;;6.40;99.90;;;;;;4972078;28;19926;-67
2023/12/19 04:08:04;;;;;;;;;;;6.40;99.90;;;;;;4981240;28;19970;-67
2023/12/19 04:10:31;;;;;;;;;;;6.40;99.90;;;;;;4974990;28;20282;-67
2023/12/19 04:12:58;;;;;;;;;;;6.40;99.90;;;;;;4980508;28;19971;-68
2023/12/19 04:15:25;;;;;;;;;;;6.40;99.90;;;;;;4972992;28;20388;-67
2023/12/19 04:17:52;;;;;;;;;;;6.40;99.90;;;;;;4999368;28;19932;-67
2023/12/19 04:20:19;;;;;;;;;;;6.40;99.90;;;;;;4992150;28;20434;-67
2023/12/19 04:22:46;;;;;;;;;;;6.40;99.90;;;;;;4981773;28;20003;-67
2023/12/19 04:25:14;;;;;;;;;;;6.40;99.90;;;;;;4974846;28;19926;-67
2023/12/19 04:27:41;;;;;;;;;;;6.40;99.90;;;;;;4972796;28;19995;-67
2023/12/19 04:30:08;;;;;;;;;;;6.40;99.90;;;;;;4982026;28;19983;-67
2023/12/19 04:32:35;;;;;;;;;;;6.40;99.90;;;;;;4975480;28;19926;-67
2023/12/19 04:35:01;;;;;;;;;;;6.50;99.90;;;;;;4971560;28;19956;-67
2023/12/19 04:37:28;;;;;;;;;;;6.50;99.90;;;;;;4974131;28;19966;-67
2023/12/19 04:39:57;;;;;;;;;;;6.50;99.90;;;;;;4986653;28;19929;-67
2023/12/19 04:42:25;;;;;;;;;;;6.50;99.90;;;;;;4989535;28;20012;-67
2023/12/19 04:44:52;;;;;;;;;;;6.60;99.90;;;;;;4969248;28;20028;-67
2023/12/19 04:47:18;;;;;;;;;;;6.70;99.90;;;;;;4985775;28;20457;-67
2023/12/19 04:49:46;;;;;;;;;;;6.70;99.90;;;;;;4974685;28;19988;-67
2023/12/19 04:52:13;;;;;;;;;;;6.70;99.90;;;;;;4955106;28;19927;-67
2023/12/19 04:54:40;;;;;;;;;;;6.70;99.90;;;;;;4980038;28;19926;-67
2023/12/19 04:57:06;;;;;;;;;;;6.70;99.90;;;;;;4984881;28;19956;-67
2023/12/19 04:59:34;;;;;;;;;;;6.80;99.90;;;;;;4970977;28;19949;-68
2023/12/19 05:02:01;;;;;;;;;;;6.80;99.90;;;;;;4969655;28;19987;-68
2023/12/19 05:04:28;;;;;;;;;;;6.80;99.90;;;;;;4970803;28;20442;-68
2023/12/19 05:06:55;;;;;;;;;;;6.80;99.90;;;;;;4971379;28;19991;-67
2023/12/19 05:09:22;;;;;;;;;;;7.00;99.90;;;;;;4971779;28;19981;-66
2023/12/19 05:11:48;;;;;;;;;;;6.90;99.90;;;;;;4970755;28;19930;-67
2023/12/19 05:14:15;;;;;;;;;;;6.90;99.90;;;;;;4971618;28;20016;-67
2023/12/19 05:16:43;;;;;;;;;;;6.90;99.90;;;;;;4971165;28;19933;-66
2023/12/19 05:19:10;;;;;;;;;;;6.90;99.90;;;;;;4970048;28;19979;-66
2023/12/19 05:21:37;;;;;;;;;;;6.90;99.90;;;;;;4974927;28;19979;-66
2023/12/19 05:24:04;;;;;;;;;;;6.90;99.90;;;;;;4970060;28;19926;-67
2023/12/19 05:26:31;;;;;;;;;;;6.90;99.90;;;;;;4979140;28;20353;-66
2023/12/19 05:28:58;;;;;;;;;;;6.90;99.90;;;;;;4976449;28;19926;-68
2023/12/19 05:31:24;;;;;;;;;;;7.00;99.90;;;;;;4976161;28;19930;-67
2023/12/19 05:33:52;;;;;;;;;;;7.10;99.90;;;;;;4982911;28;19926;-66
2023/12/19 05:36:20;;;;;;;;;;;7.00;99.90;;;;;;4978997;28;19927;-66
2023/12/19 05:38:47;;;;;;;;;;;7.00;99.90;;;;;;4992282;28;20004;-66
2023/12/19 05:41:16;;;;;;;;;;;7.00;99.90;;;;;;4976546;28;20263;-66
2023/12/19 05:43:43;;;;;;;;;;;7.00;99.90;;;;;;5005482;28;19928;-66
2023/12/19 05:46:10;;;;;;;;;;;7.00;99.90;;;;;;4986064;28;19971;-66
2023/12/19 05:48:36;;;;;;;;;;;7.00;99.90;;;;;;4970325;28;19926;-67
2023/12/19 05:51:05;;;;;;;;;;;7.00;99.90;;;;;;4959542;28;19930;-66
2023/12/19 05:53:31;;;;;;;;;;;7.10;99.90;;;;;;4969112;28;19926;-66
2023/12/19 05:55:58;;;;;;;;;;;7.00;99.90;;;;;;4972612;28;20289;-66
2023/12/19 05:58:25;;;;;;;;;;;7.00;99.90;;;;;;4977955;28;19973;-66
2023/12/19 06:00:55;;;;;;;;;;;7.10;99.90;;;;;;4970296;28;19926;-66
2023/12/19 06:03:22;;;;;;;;;;;7.10;99.90;;;;;;4972166;28;19997;-67
2023/12/19 06:05:49;;;;;;;;;;;7.10;99.90;;;;;;4972171;28;19930;-67
2023/12/19 06:08:18;;;;;;;;;;;7.10;99.90;;;;;;4989066;28;19930;-68
2023/12/19 06:10:45;;;;;;;;;;;7.10;99.90;;;;;;4969359;28;19931;-68
2023/12/19 06:13:12;;;;;;;;;;;7.10;99.90;;;;;;4968481;28;19926;-66
2023/12/19 06:15:38;;;;;;;;;;;7.10;99.90;;;;;;4971398;28;19964;-67
2023/12/19 06:18:05;;;;;;;;;;;7.00;99.90;;;;;;4983764;28;19937;-67
2023/12/19 06:20:32;;;;;;;;;;;7.00;99.90;;;;;;4986011;28;20006;-67
2023/12/19 06:22:59;;;;;;;;;;;7.00;99.90;;;;;;4975171;28;19934;-68
2023/12/19 06:25:27;;;;;;;;;;;7.10;99.90;;;;;;4968619;28;20493;-68
2023/12/19 06:27:56;;;;;;;;;;;7.10;99.90;;;;;;4969046;28;19927;-68
2023/12/19 06:30:22;;;;;;;;;;;7.20;99.90;;;;;;4974006;28;19928;-68
2023/12/19 06:32:49;;;;;;;;;;;7.10;99.90;;;;;;4968226;28;19980;-69
2023/12/19 06:35:16;;;;;;;;;;;7.10;99.90;;;;;;5015816;28;19930;-67
2023/12/19 06:37:44;;;;;;;;;;;7.10;99.90;;;;;;4977475;28;19941;-67
2023/12/19 06:40:12;;;;;;;;;;;7.00;99.90;;;;;;4971686;28;20381;-68
2023/12/19 06:42:40;;;;;;;;;;;7.00;99.90;;;;;;4969252;28;19930;-67
2023/12/19 06:45:07;;;;;;;;;;;7.00;99.90;;;;;;4970865;28;19926;-67
2023/12/19 06:47:35;;;;;;;;;;;7.00;99.90;;;;;;4972928;28;19945;-68
2023/12/19 06:50:03;;;;;;;;;;;7.00;99.90;;;;;;4971577;28;20021;-68
2023/12/19 06:52:30;;;;;;;;;;;7.00;99.90;;;;;;4970386;28;19949;-68
2023/12/19 06:54:57;;;;;;;;;;;7.00;99.90;;;;;;4970534;28;19930;-68
2023/12/19 06:57:24;;;;;;;;;;;7.00;99.90;;;;;;4970681;28;19930;-68
2023/12/19 06:59:52;;;;;;;;;;;7.00;99.90;;;;;;4969971;28;19927;-68
2023/12/19 07:02:19;;;;;;;;;;;7.00;99.90;;;;;;4969584;28;19926;-68
2023/12/19 07:04:46;;;;;;;;;;;7.00;99.90;;;;;;4973524;28;21937;-68
2023/12/19 07:07:13;;;;;;;;;;;6.90;99.90;;;;;;4980386;28;19927;-69
2023/12/19 07:09:40;;;;;;;;;;;7.00;99.90;;;;;;4974172;28;19930;-68
2023/12/19 07:12:07;;;;;;;;;;;7.00;99.90;;;;;;4969108;28;19927;-69
2023/12/19 07:14:34;;;;;;;;;;;7.00;99.90;;;;;;4969916;28;19979;-69
2023/12/19 07:17:02;;;;;;;;;;;7.00;99.90;;;;;;4968771;28;19940;-68
2023/12/19 07:19:29;;;;;;;;;;;7.00;99.90;;;;;;4968113;28;19973;-68
2023/12/19 07:21:56;;;;;;;;;;;7.00;99.90;;;;;;4966638;28;20025;-69
2023/12/19 07:24:23;;;;;;;;;;;7.00;99.90;;;;;;4968678;28;19934;-69
2023/12/19 07:26:50;;;;;;;;;;;7.00;99.90;;;;;;4974818;28;19935;-68
2023/12/19 07:29:17;;;;;;;;;;;7.00;99.90;;;;;;4987439;28;19930;-67
2023/12/19 07:31:43;;;;;;;;;;;7.00;99.90;;;;;;4971865;28;20047;-70
2023/12/19 07:34:11;;;;;;;;;;;7.00;99.90;;;;;;4973131;28;20016;-70
2023/12/19 07:36:38;;;;;;;;;;;7.00;99.90;;;;;;4970604;28;19930;-68
2023/12/19 07:39:05;;;;;;;;;;;7.00;99.90;;;;;;4971898;28;19926;-68
2023/12/19 07:41:32;;;;;;;;;;;7.00;99.90;;;;;;4971167;28;19927;-68
2023/12/19 07:43:59;;;;;;;;;;;7.10;99.90;;;;;;4973256;28;20000;-68
2023/12/19 07:46:26;;;;;;;;;;;7.10;99.90;;;;;;4971825;28;20012;-68
2023/12/19 07:48:53;;;;;;;;;;;7.10;99.90;;;;;;4970752;28;19933;-67
2023/12/19 07:51:23;;;;;;;;;;;7.10;99.90;;;;;;4975687;28;20001;-69
2023/12/19 07:53:49;;;;;;;;;;;7.00;99.90;;;;;;4970153;28;19980;-69
2023/12/19 07:56:16;;;;;;;;;;;7.00;99.90;;;;;;4971431;28;19984;-68
2023/12/19 07:58:43;;;;;;;;;;;7.10;99.90;;;;;;4967214;28;19927;-68
2023/12/19 08:01:10;;;;;;;;;;;7.00;99.90;;;;;;4969828;28;19930;-69
2023/12/19 08:03:37;;;;;;;;;;;6.90;99.90;;;;;;4969410;28;19980;-69
2023/12/19 08:06:04;;;;;;;;;;;6.90;99.90;;;;;;4972049;28;20011;-68
2023/12/19 08:08:34;;;;;;;;;;;6.90;99.90;;;;;;4978550;28;20029;-68
2023/12/19 08:11:00;;;;;;;;;;;6.90;99.90;;;;;;5016441;22;19928;-68
2023/12/19 08:13:27;;;;;;;;;;;6.90;99.90;;;;;;5055323;22;20368;-68
2023/12/19 08:15:54;;;;;;;;;;;6.90;99.90;;;;;;5050575;28;20444;-66
2023/12/19 08:18:21;;;;;;;;;;;6.90;99.90;;;;;;5057444;28;19979;-66
2023/12/19 08:20:48;;;;;;;;;;;7.00;99.90;;;;;;5047644;28;19960;-66
2023/12/19 08:23:14;;;;;;;;;;;7.00;99.90;;;;;;5051563;28;20575;-66
2023/12/19 08:25:43;;;;;;;;;;;7.10;99.90;;;;;;5043284;28;19967;-65
2023/12/19 08:28:10;;;;;;;;;;;7.10;99.90;;;;;;5046838;28;20029;-66
2023/12/19 08:30:37;;;;;;;;;;;7.10;99.90;;;;;;5034272;28;19925;-65
2023/12/19 08:33:04;;;;;;;;;;;7.10;99.90;;;;;;5043645;28;19980;-66
2023/12/19 08:35:30;;;;;;;;;;;7.10;99.90;;;;;;5051854;28;19925;-66
2023/12/19 08:37:57;;;;;;;;;;;7.10;99.90;;;;;;5053268;28;20418;-65
2023/12/19 08:40:24;;;;;;;;;;;7.20;99.90;;;;;;5037835;28;19925;-66
2023/12/19 08:42:53;;;;;;;;;;;7.20;99.90;;;;;;5034765;28;19929;-66
2023/12/19 08:45:22;;;;;;;;;;;7.20;99.90;;;;;;5044718;28;19924;-65
2023/12/19 08:47:49;;;;;;;;;;;7.20;99.90;;;;;;5036247;28;19936;-65
2023/12/19 08:50:17;;;;;;;;;;;7.20;99.90;;;;;;5047378;28;20021;-66
2023/12/19 08:52:44;;;;;;;;;;;7.20;99.90;;;;;;5052478;28;19931;-66
2023/12/19 08:55:11;;;;;;;;;;;7.20;99.90;;;;;;5043586;28;19944;-66
2023/12/19 08:57:39;;;;;;;;;;;7.20;99.90;;;;;;5037623;28;19990;-66
2023/12/19 09:00:12;;;;;;;;;;;7.20;99.90;;;;;;5043077;28;19925;-65
2023/12/19 09:02:41;;;;;;;;;;;7.20;99.90;;;;;;5039466;28;19931;-65
2023/12/19 09:05:09;;;;;;;;;;;7.20;99.90;;;;;;5052165;28;20292;-66
2023/12/19 09:07:36;;;;;;;;;;;7.20;99.90;;;;;;5048323;28;19925;-65
2023/12/19 09:10:03;;;;;;;;;;;7.30;99.90;;;;;;5033312;28;19925;-65
2023/12/19 09:12:33;;;;;;;;;;;7.30;99.90;;;;;;5049932;28;19929;-66
2023/12/19 09:15:00;;;;;;;;;;;7.30;99.90;;;;;;5035463;28;19983;-68
2023/12/19 09:17:28;;;;;;;;;;;7.30;99.90;;;;;;5034842;28;19925;-68
2023/12/19 09:19:55;;;;;;;;;;;7.30;99.90;;;;;;5043308;28;20062;-68
2023/12/19 09:22:22;;;;;;;;;;;7.30;99.90;;;;;;5042727;28;19972;-67
2023/12/19 09:24:48;;;;;;;;;;;7.40;99.90;;;;;;5042197;28;20065;-68
2023/12/19 09:27:16;;;;;;;;;;;7.40;99.90;;;;;;5047283;28;19932;-67
2023/12/19 09:29:42;;;;;;;;;;;7.40;99.90;;;;;;5045892;28;19962;-67
2023/12/19 09:32:09;;;;;;;;;;;7.40;99.90;;;;;;5033821;28;19987;-67
2023/12/19 09:34:40;;;;;;;;;;;7.50;99.90;;;;;;5050247;22;20403;-67
2023/12/19 09:37:07;;;;;;;;;;;7.50;99.90;;;;;;5058988;28;19939;-68
2023/12/19 09:39:33;;;;;;;;;;;7.50;99.90;;;;;;5054801;28;19933;-68
2023/12/19 09:42:00;;;;;;;;;;;7.50;99.90;;;;;;5063314;28;20379;-68
2023/12/19 09:44:27;;;;;;;;;;;7.50;99.90;;;;;;5061708;22;19926;-69
2023/12/19 09:46:54;;;;;;;;;;;7.50;99.90;;;;;;5046203;28;20326;-69
2023/12/19 09:49:22;;;;;;;;;;;7.50;99.90;;;;;;5049660;28;19935;-69
2023/12/19 09:51:52;;;;;;;;;;;7.50;99.90;;;;;;5049100;28;20183;-69
2023/12/19 09:54:20;;;;;;;;;;;7.60;99.90;;;;;;5043316;28;19987;-68
2023/12/19 09:56:47;;;;;;;;;;;7.60;99.90;;;;;;5042533;28;19971;-68
2023/12/19 09:59:15;;;;;;;;;;;7.60;99.90;;;;;;5045744;28;19943;-68
2023/12/19 10:01:42;;;;;;;;;;;7.60;99.90;;;;;;5039110;28;20443;-69
2023/12/19 10:04:13;;;;;;;;;;;7.60;99.90;;;;;;5039169;28;19964;-69
2023/12/19 10:06:40;;;;;;;;;;;7.60;99.90;;;;;;5046546;28;20366;-69
2023/12/19 10:09:08;;;;;;;;;;;7.70;99.90;;;;;;5043188;28;19925;-68
2023/12/19 10:11:35;;;;;;;;;;;7.70;99.90;;;;;;5048544;28;19986;-68
2023/12/19 10:14:09;;;;;;;;;;;7.60;99.90;;;;;;5040272;28;19967;-68
2023/12/19 10:16:38;;;;;;;;;;;7.70;99.90;;;;;;5046297;28;20011;-68
2023/12/19 10:19:05;;;;;;;;;;;7.70;99.90;;;;;;5041811;28;19924;-68
2023/12/19 10:21:32;;;;;;;;;;;7.70;99.90;;;;;;5043126;28;19972;-68
2023/12/19 10:24:11;;;;;;;;;;;7.70;99.90;;;;;;5034314;28;20084;-67
2023/12/19 10:26:38;;;;;;;;;;;7.70;99.90;;;;;;5043599;28;19925;-68
2023/12/19 10:29:05;;;;;;;;;;;7.70;99.90;;;;;;5031704;28;20387;-66
2023/12/19 10:31:32;;;;;;;;;;;7.70;99.90;;;;;;5044797;28;19925;-67
2023/12/19 10:33:59;;;;;;;;;;;7.80;99.90;;;;;;5047470;28;20356;-69
2023/12/19 10:36:26;;;;;;;;;;;7.80;99.90;;;;;;5045507;28;20425;-68
2023/12/19 10:38:53;;;;;;;;;;;7.80;99.90;;;;;;5037549;28;19924;-68
2023/12/19 10:41:23;;;;;;;;;;;7.80;99.90;;;;;;5042569;28;19925;-67
2023/12/19 10:43:51;;;;;;;;;;;7.80;99.90;;;;;;5047397;28;19931;-68
2023/12/19 10:46:19;;;;;;;;;;;7.80;99.90;;;;;;5049371;28;20016;-68
2023/12/19 10:48:46;;;;;;;;;;;7.80;99.90;;;;;;5040988;28;19925;-67
2023/12/19 10:51:15;;;;;;;;;;;7.80;99.90;;;;;;5039144;28;19964;-68
2023/12/19 10:53:48;;;;;;;;;;;7.80;99.90;;;;;;5040422;28;19983;-68
2023/12/19 10:56:16;;;;;;;;;;;7.80;99.90;;;;;;5040562;28;19932;-68
2023/12/19 10:58:47;;;;;;;;;;;7.80;99.90;;;;;;5041682;28;19929;-68
2023/12/19 11:01:15;;;;;;;;;;;7.90;99.90;;;;;;5041798;28;19925;-67
2023/12/19 11:03:45;;;;;;;;;;;7.80;99.90;;;;;;5049333;28;19925;-70
2023/12/19 11:06:14;;;;;;;;;;;7.80;99.90;;;;;;5051440;28;20612;-68
2023/12/19 11:08:44;;;;;;;;;;;7.80;99.90;;;;;;5046448;28;19925;-67
2023/12/19 11:11:14;;;;;;;;;;;7.80;99.90;;;;;;5051651;28;19964;-69
2023/12/19 11:13:42;;;;;;;;;;;7.70;99.90;;;;;;5048227;28;19929;-68
2023/12/19 11:16:12;;;;;;;;;;;7.70;99.90;;;;;;5050454;28;19925;-68
2023/12/19 11:18:43;;;;;;;;;;;7.70;99.90;;;;;;5052769;28;19966;-68
2023/12/19 11:21:14;;;;;;;;;;;7.70;99.90;;;;;;5048820;28;19933;-69
2023/12/19 11:23:45;;;;;;;;;;;7.70;99.90;;;;;;5048635;28;19971;-69
2023/12/19 11:26:17;;;;;;;;;;;7.80;99.90;;;;;;5050153;28;19956;-69
2023/12/19 11:28:44;;;;;;;;;;;7.80;99.90;;;;;;5050030;28;19951;-68
2023/12/19 11:31:32;;;;;;;;;;;7.80;99.90;;;;;;5038139;28;20359;-67
2023/12/19 11:34:01;;;;;;;;;;;7.80;99.90;;;;;;5038523;28;20222;-68
2023/12/19 11:36:28;;;;;;;;;;;7.70;99.90;;;;;;5044547;28;19924;-67
2023/12/19 11:39:09;;;;;;;;;;;7.80;99.90;;;;;;5046188;28;19954;-68
2023/12/19 11:41:37;;;;;;;;;;;7.80;99.90;;;;;;5048253;28;20499;-69
2023/12/19 11:44:04;;;;;;;;;;;7.80;99.90;;;;;;5054288;28;19925;-69
2023/12/19 11:46:30;;;;;;;;;;;7.70;99.90;;;;;;5047178;28;19953;-69
2023/12/19 11:48:57;;;;;;;;;;;7.70;99.90;;;;;;5041253;28;20402;-69
2023/12/19 11:51:37;;;;;;;;;;;7.70;99.90;;;;;;5043048;28;20010;-69
2023/12/19 11:54:10;;;;;;;;;;;7.70;99.90;;;;;;5046723;28;19941;-69
2023/12/19 11:56:37;;;;;;;;;;;;;;;;;;5046090;28;20020;-68
2023/12/19 11:59:04;;;;;;;;;;;;;;;;;;5048245;28;19932;-68
2023/12/19 12:01:31;;;;;;;;;;;;;;;;;;5042745;28;20004;-68
2023/12/19 12:03:58;;;;;;;;;;;;;;;;;;5050492;28;20448;-68
2023/12/19 12:06:25;;;;;;;;;;;;;;;;;;5049301;28;19948;-69
2023/12/19 12:08:52;;;;;;;;;;;;;;;;;;5051032;28;19925;-68
2023/12/19 12:11:19;;;;;;;;;;;;;;;;;;5046008;28;19933;-70
2023/12/19 12:13:46;;;;;;;;;;;;;;;;;;5051655;28;19933;-69
2023/12/19 12:16:14;;;;;;;;;;;;;;;;;;5049642;28;19925;-69
2023/12/19 12:18:41;;;;;;;;;;;;;;;;;;5045750;28;19940;-69
2023/12/19 12:21:08;;;;;;;;;;;;;;;;;;5049852;28;19929;-69
2023/12/19 12:23:35;;;;;;;;;;;;;;;;;;5045203;28;19925;-68
2023/12/19 12:26:05;;;;;;;;;;;;;;;;;;5044846;28;20002;-69
2023/12/19 12:28:33;;;;;;;;;;;;;;;;;;5042501;28;20334;-69
2023/12/19 12:31:00;;;;;;;;;;;;;;;;;;5047065;28;19925;-69
2023/12/19 12:33:27;;;;;;;;;;;;;;;;;;5042164;28;19986;-66
2023/12/19 12:35:54;;;;;;;;;;;;;;;;;;5042856;28;20375;-67
2023/12/19 12:38:22;;;;;;;;;;;;;;;;;;5047058;28;19986;-67
2023/12/19 12:40:49;;;;;;;;;;;;;;;;;;5047314;28;19933;-67
2023/12/19 12:43:16;;;;;;;;;;;;;;;;;;5042817;28;19972;-68
2023/12/19 12:45:43;;;;;;;;;;;;;;;;;;5047376;28;19929;-68
2023/12/19 12:48:11;;;;;;;;;;;;;;;;;;5047093;28;19979;-69
2023/12/19 12:50:39;;;;;;;;;;;;;;;;;;5051887;28;19928;-69
2023/12/19 12:53:07;;;;;;;;;;;;;;;;;;5051535;28;19976;-69
2023/12/19 12:55:34;;;;;;;;;;;;;;;;;;5047160;28;19924;-70
2023/12/19 12:58:02;;;;;;;;;;;;;;;;;;5051278;28;19975;-70
2023/12/19 13:00:33;;;;;;;;;;;;;;;;;;5049394;28;19925;-69
2023/12/19 13:03:03;;;;;;;;;;;;;;;;;;5051187;28;19925;-69
2023/12/19 13:05:35;;;;;;;;;;;;;;;;;;5047754;28;19943;-69
2023/12/19 13:08:02;;;;;;;;;;;;;;;;;;5054850;22;19928;-68
2023/12/19 13:10:35;;;;;;;;;;;;;;;;;;5049403;28;20418;-68
2023/12/19 13:13:03;;;;;;;;;;;;;;;;;;5044493;28;19952;-69
2023/12/19 13:15:31;;;;;;;;;;;;;;;;;;5044584;28;19939;-69
2023/12/19 13:17:58;;;;;;;;;;;;;;;;;;5043285;28;20298;-69
2023/12/19 13:20:30;;;;;;;;;;;;;;;;;;5044773;28;19925;-70
2023/12/19 13:23:06;;;;;;;;;;;;;;;;;;5050350;28;19929;-69
2023/12/19 13:25:33;;;;;;;;;;;;;;;;;;5050728;28;20322;-69
2023/12/19 13:28:02;;;;;;;;;;;;;;;;;;5050996;28;19924;-70
2023/12/19 13:30:35;;;;;;;;;;;;;;;;;;5049546;28;19932;-69
2023/12/19 13:33:02;;;;;;;;;;;;;;;;;;5051337;28;20380;-69
2023/12/19 13:35:29;;;;;;;;;;;;;;;;;;5048447;28;20807;-69
2023/12/19 13:37:56;;;;;;;;;;;;;;;;;;5048348;28;20330;-70
2023/12/19 13:40:23;;;;;;;;;;;;;;;;;;5047044;28;20699;-71
2023/12/19 13:42:50;;;;;;;;;;;;;;;;;;5048560;28;19970;-70
2023/12/19 13:45:17;;;;;;;;;;;;;;;;;;5050492;28;19951;-71
2023/12/19 13:47:48;;;;;;;;;;;;;;;;;;5050313;28;19971;-68
2023/12/19 13:50:16;;;;;;;;;;;;;;;;;;5049531;28;19924;-69
2023/12/19 13:52:43;;;;;;;;;;;;;;;;;;5050031;28;19925;-68
2023/12/19 13:55:10;;;;;;;;;;;;;;;;;;5038449;28;19979;-69
2023/12/19 13:57:39;;;;;;;;;;;;;;;;;;5042713;28;19956;-70
2023/12/19 14:00:07;;;;;;;;;;;;;;;;;;5044859;28;19925;-67
2023/12/19 14:02:35;;;;;;;;;;;;;;;;;;5050476;28;19925;-66
2023/12/19 14:05:02;;;;;;;;;;;;;;;;;;5047308;28;19933;-67
2023/12/19 14:07:30;;;;;;;;;;;;;;;;;;5050658;28;20379;-66
2023/12/19 14:09:58;;;;;;;;;;;;;;;;;;5051233;28;19929;-67
2023/12/19 14:12:28;;;;;;;;;;;;;;;;;;5045773;28;20051;-67
2023/12/19 14:14:55;;;;;;;;;;;;;;;;;;5039025;28;19925;-67
2023/12/19 14:17:22;;;;;;;;;;;;;;;;;;5038988;28;19924;-66
2023/12/19 14:19:49;;;;;;;;;;;;;;;;;;5041624;28;20101;-66
2023/12/19 14:22:17;;;;;;;;;;;;;;;;;;5050488;28;19929;-67
2023/12/19 14:24:44;;;;;;;;;;;;;;;;;;5046717;28;19955;-68
2023/12/19 14:27:11;;;;;;;;;;;;;;;;;;5046772;28;19956;-69
2023/12/19 14:29:38;;;;;;;;;;;;;;;;;;5050733;28;19925;-69
2023/12/19 14:32:05;;;;;;;;;;;;;;;;;;5050142;28;19925;-69
2023/12/19 14:34:32;;;;;;;;;;;;;;;;;;5050774;28;19925;-70
2023/12/19 14:37:03;;;;;;;;;;;;;;;;;;5044728;28;19925;-69
2023/12/19 14:39:30;;;;;;;;;;;;;;;;;;5046989;28;19924;-69
2023/12/19 14:41:57;;;;;;;;;;;;;;;;;;5048074;28;19925;-70
2023/12/19 14:44:27;;;;;;;;;;;;;;;;;;5048824;28;19925;-69
2023/12/19 14:46:54;;;;;;;;;;;;;;;;;;5044425;28;19928;-69
2023/12/19 14:49:21;;;;;;;;;;;;;;;;;;5049052;28;20293;-70
2023/12/19 14:51:48;;;;;;;;;;;;;;;;;;5049436;28;19998;-68
2023/12/19 14:54:15;;;;;;;;;;;;;;;;;;5044459;28;19979;-69
2023/12/19 14:56:42;;;;;;;;;;;;;;;;;;5044831;28;20047;-69